createdAt,value
2018-08-20T00:00:52.017Z,24.67
2018-08-20T00:03:20.582Z,24.63
2018-08-20T00:05:54.294Z,24.63
2018-08-20T00:08:23.968Z,24.59
2018-08-20T00:10:55.739Z,24.60
2018-08-20T00:13:24.711Z,24.57
2018-08-20T00:15:53.540Z,24.55
2018-08-20T00:18:27.104Z,24.48
2018-08-20T00:20:55.723Z,24.46
2018-08-20T00:23:24.804Z,24.44
2018-08-20T00:25:56.894Z,24.44
2018-08-20T00:28:25.520Z,24.41
2018-08-20T00:30:54.002Z,24.39
2018-08-20T00:33:22.619Z,24.38
2018-08-20T00:35:51.229Z,24.39
2018-08-20T00:38:19.712Z,24.37
2018-08-20T00:40:48.242Z,24.35
2018-08-20T00:43:16.739Z,24.32
2018-08-20T00:45:45.186Z,24.30
2018-08-20T00:48:13.624Z,24.27
2018-08-20T00:50:42.111Z,24.24
2018-08-20T00:53:10.693Z,24.17
2018-08-20T00:55:39.162Z,24.16
2018-08-20T00:58:07.599Z,24.12
2018-08-20T01:00:36.001Z,24.07
2018-08-20T01:03:04.447Z,24.06
2018-08-20T01:05:32.840Z,24.02
2018-08-20T01:08:01.271Z,23.99
2018-08-20T01:10:29.891Z,23.98
2018-08-20T01:12:58.296Z,24.00
2018-08-20T01:15:26.781Z,23.96
2018-08-20T01:17:55.231Z,23.94
2018-08-20T01:20:23.974Z,23.92
2018-08-20T01:22:52.949Z,23.91
2018-08-20T01:25:21.486Z,23.87
2018-08-20T01:27:50.606Z,23.82
2018-08-20T01:30:19.356Z,23.80
2018-08-20T01:32:48.267Z,23.76
2018-08-20T01:35:27.606Z,23.74
2018-08-20T01:37:56.252Z,23.73
2018-08-20T01:40:25.180Z,23.73
2018-08-20T01:42:53.584Z,23.70
2018-08-20T01:45:22.090Z,23.71
2018-08-20T01:47:50.566Z,23.66
2018-08-20T01:50:18.932Z,23.64
2018-08-20T01:52:47.406Z,23.63
2018-08-20T01:55:16.062Z,23.62
2018-08-20T01:57:44.590Z,23.58
2018-08-20T02:00:13.140Z,23.52
2018-08-20T02:02:41.682Z,23.48
2018-08-20T02:05:10.294Z,23.43
2018-08-20T02:07:38.812Z,23.42
2018-08-20T02:10:08.032Z,23.41
2018-08-20T02:12:36.588Z,23.42
2018-08-20T02:15:06.073Z,23.38
2018-08-20T02:17:34.751Z,23.36
2018-08-20T02:20:03.673Z,23.35
2018-08-20T02:22:32.528Z,23.31
2018-08-20T02:25:01.745Z,23.24
2018-08-20T02:27:30.360Z,23.24
2018-08-20T02:29:59.027Z,23.21
2018-08-20T02:32:27.656Z,23.20
2018-08-20T02:34:56.473Z,23.17
2018-08-20T02:37:58.316Z,23.12
2018-08-20T02:40:27.837Z,23.12
2018-08-20T02:42:56.548Z,23.08
2018-08-20T02:45:25.226Z,23.03
2018-08-20T02:47:53.822Z,22.98
2018-08-20T02:50:22.496Z,22.96
2018-08-20T02:52:52.216Z,22.92
2018-08-20T02:55:20.886Z,22.90
2018-08-20T02:57:49.764Z,22.90
2018-08-20T03:00:18.350Z,22.92
2018-08-20T03:02:52.075Z,22.88
2018-08-20T03:05:20.734Z,22.90
2018-08-20T03:07:49.591Z,22.85
2018-08-20T03:10:18.011Z,22.84
2018-08-20T03:12:46.529Z,22.79
2018-08-20T03:15:15.070Z,22.75
2018-08-20T03:17:43.500Z,22.73
2018-08-20T03:20:12.038Z,22.70
2018-08-20T03:22:40.671Z,22.70
2018-08-20T03:25:09.686Z,22.71
2018-08-20T03:27:38.394Z,22.69
2018-08-20T03:30:08.050Z,22.67
2018-08-20T03:32:37.437Z,22.73
2018-08-20T03:35:07.578Z,22.76
2018-08-20T03:37:36.099Z,22.77
2018-08-20T03:40:05.646Z,22.76
2018-08-20T03:42:34.310Z,22.77
2018-08-20T03:45:02.997Z,22.76
2018-08-20T03:47:31.687Z,22.79
2018-08-20T03:50:00.362Z,22.61
2018-08-20T03:52:29.040Z,22.40
2018-08-20T03:54:57.661Z,22.34
2018-08-20T03:57:26.993Z,22.32
2018-08-20T03:59:55.669Z,22.22
2018-08-20T04:02:25.248Z,22.18
2018-08-20T04:04:54.355Z,22.21
2018-08-20T04:07:23.026Z,22.29
2018-08-20T04:09:51.631Z,22.20
2018-08-20T04:12:20.225Z,22.09
2018-08-20T04:14:48.899Z,22.01
2018-08-20T04:17:17.458Z,21.98
2018-08-20T04:19:46.842Z,22.02
2018-08-20T04:22:15.451Z,22.08
2018-08-20T04:24:44.208Z,21.96
2018-08-20T04:27:12.886Z,21.83
2018-08-20T04:29:42.443Z,21.66
2018-08-20T04:32:11.184Z,21.57
2018-08-20T04:34:39.952Z,21.44
2018-08-20T04:37:08.532Z,21.37
2018-08-20T04:39:37.208Z,21.34
2018-08-20T04:42:06.775Z,21.26
2018-08-20T04:44:35.682Z,21.21
2018-08-20T04:47:04.591Z,21.36
2018-08-20T04:49:33.370Z,21.40
2018-08-20T04:52:02.029Z,21.29
2018-08-20T04:54:30.735Z,21.17
2018-08-20T04:56:59.683Z,21.13
2018-08-20T04:59:28.326Z,21.06
2018-08-20T05:01:57.196Z,21.09
2018-08-20T05:04:26.196Z,21.11
2018-08-20T05:06:54.906Z,21.18
2018-08-20T05:09:23.596Z,21.20
2018-08-20T05:11:52.232Z,21.06
2018-08-20T05:14:21.260Z,20.97
2018-08-20T05:16:50.023Z,20.98
2018-08-20T05:19:18.924Z,21.01
2018-08-20T05:21:47.931Z,21.00
2018-08-20T05:24:16.499Z,20.97
2018-08-20T05:26:44.961Z,20.90
2018-08-20T05:29:13.499Z,20.92
2018-08-20T05:31:41.910Z,20.99
2018-08-20T05:34:10.614Z,21.04
2018-08-20T05:36:39.138Z,21.07
2018-08-20T05:39:08.987Z,21.04
2018-08-20T05:41:37.467Z,21.09
2018-08-20T05:44:05.960Z,21.12
2018-08-20T05:46:34.418Z,21.21
2018-08-20T05:49:02.924Z,21.28
2018-08-20T05:51:31.483Z,21.34
2018-08-20T05:53:59.999Z,21.32
2018-08-20T05:56:28.564Z,21.44
2018-08-20T05:58:57.134Z,21.54
2018-08-20T06:01:25.614Z,21.70
2018-08-20T06:03:54.331Z,21.76
2018-08-20T06:06:22.770Z,21.82
2018-08-20T06:08:51.234Z,21.92
2018-08-20T06:11:19.721Z,22.06
2018-08-20T06:13:48.266Z,22.21
2018-08-20T06:16:16.804Z,22.31
2018-08-20T06:18:45.277Z,22.39
2018-08-20T06:21:13.698Z,22.48
2018-08-20T06:23:42.247Z,22.51
2018-08-20T06:26:10.927Z,22.58
2018-08-20T06:28:40.287Z,22.58
2018-08-20T06:31:08.710Z,22.58
2018-08-20T06:33:37.235Z,22.66
2018-08-20T06:36:05.835Z,22.71
2018-08-20T06:38:34.296Z,22.73
2018-08-20T06:41:02.870Z,22.78
2018-08-20T06:43:31.335Z,22.78
2018-08-20T06:46:00.118Z,22.82
2018-08-20T06:48:28.549Z,22.84
2018-08-20T06:50:57.017Z,22.90
2018-08-20T06:53:34.919Z,22.87
2018-08-20T06:56:04.033Z,22.91
2018-08-20T06:58:32.492Z,22.97
2018-08-20T07:01:00.956Z,23.02
2018-08-20T07:03:34.535Z,23.09
2018-08-20T07:06:03.111Z,23.13
2018-08-20T07:08:31.644Z,23.18
2018-08-20T07:11:00.303Z,23.32
2018-08-20T07:13:36.237Z,23.42
2018-08-20T07:16:13.447Z,23.47
2018-08-20T07:18:42.155Z,23.54
2018-08-20T07:21:10.632Z,23.61
2018-08-20T07:23:39.409Z,23.61
2018-08-20T07:26:08.196Z,23.72
2018-08-20T07:28:36.813Z,23.75
2018-08-20T07:31:05.765Z,23.80
2018-08-20T07:33:35.146Z,23.90
2018-08-20T07:36:04.038Z,23.97
2018-08-20T07:38:32.987Z,24.04
2018-08-20T07:41:01.556Z,24.08
2018-08-20T07:43:30.195Z,24.09
2018-08-20T07:45:58.646Z,24.15
2018-08-20T07:48:27.096Z,24.20
2018-08-20T07:50:55.944Z,24.20
2018-08-20T07:53:24.455Z,24.21
2018-08-20T07:55:52.955Z,24.23
2018-08-20T07:58:21.913Z,24.24
2018-08-20T08:00:50.539Z,24.30
2018-08-20T08:03:29.153Z,24.37
2018-08-20T08:05:59.142Z,24.36
2018-08-20T08:08:28.573Z,24.39
2018-08-20T08:10:57.188Z,24.40
2018-08-20T08:13:31.334Z,24.49
2018-08-20T08:16:00.895Z,24.55
2018-08-20T08:18:29.450Z,24.52
2018-08-20T08:20:59.183Z,24.57
2018-08-20T08:23:33.203Z,24.55
2018-08-20T08:26:02.100Z,24.65
2018-08-20T08:28:30.571Z,24.81
2018-08-20T08:30:59.962Z,24.88
2018-08-20T08:33:33.599Z,24.90
2018-08-20T08:36:02.004Z,24.89
2018-08-20T08:38:30.412Z,24.92
2018-08-20T08:41:00.111Z,24.89
2018-08-20T08:43:28.988Z,24.96
2018-08-20T08:45:57.864Z,25.01
2018-08-20T08:48:27.765Z,25.09
2018-08-20T08:50:56.632Z,25.15
2018-08-20T08:53:26.404Z,25.21
2018-08-20T08:55:55.693Z,25.19
2018-08-20T08:58:24.198Z,25.19
2018-08-20T09:00:52.867Z,25.19
2018-08-20T09:03:21.334Z,25.24
2018-08-20T09:05:51.613Z,25.30
2018-08-20T09:08:20.491Z,25.33
2018-08-20T09:10:48.905Z,25.40
2018-08-20T09:13:22.425Z,25.42
2018-08-20T09:15:50.927Z,25.38
2018-08-20T09:18:19.624Z,25.36
2018-08-20T09:20:48.102Z,25.38
2018-08-20T09:23:16.564Z,25.41
2018-08-20T09:25:45.396Z,25.39
2018-08-20T09:28:14.164Z,25.37
2018-08-20T09:30:42.655Z,25.33
2018-08-20T09:33:11.107Z,25.26
2018-08-20T09:35:39.605Z,25.17
2018-08-20T09:38:08.154Z,25.15
2018-08-20T09:40:36.723Z,25.15
2018-08-20T09:43:05.371Z,25.18
2018-08-20T09:45:34.068Z,25.10
2018-08-20T09:48:02.533Z,24.99
2018-08-20T09:50:30.974Z,24.98
2018-08-20T09:52:59.643Z,24.96
2018-08-20T09:55:28.263Z,24.88
2018-08-20T09:57:56.834Z,24.79
2018-08-20T10:00:31.013Z,24.78
2018-08-20T10:02:59.708Z,24.73
2018-08-20T10:05:28.322Z,24.73
2018-08-20T10:07:56.965Z,24.67
2018-08-20T10:10:25.618Z,24.65
2018-08-20T10:12:54.437Z,24.61
2018-08-20T10:15:22.852Z,24.63
2018-08-20T10:17:52.457Z,24.62
2018-08-20T10:20:21.241Z,24.56
2018-08-20T10:22:50.250Z,24.54
2018-08-20T10:25:18.708Z,24.55
2018-08-20T10:27:47.241Z,24.52
2018-08-20T10:30:15.694Z,24.54
2018-08-20T10:32:44.194Z,24.59
2018-08-20T10:35:12.629Z,24.58
2018-08-20T10:37:41.626Z,24.68
2018-08-20T10:40:10.056Z,24.72
2018-08-20T10:42:39.163Z,24.74
2018-08-20T10:45:14.600Z,24.74
2018-08-20T10:47:44.398Z,24.76
2018-08-20T10:50:16.968Z,24.75
2018-08-20T10:52:47.053Z,24.80
2018-08-20T10:55:16.623Z,24.83
2018-08-20T11:00:28.405Z,24.93
2018-08-20T11:02:57.291Z,25.00
2018-08-20T11:05:25.844Z,25.13
2018-08-20T11:07:54.270Z,25.24
2018-08-20T11:10:22.743Z,25.32
2018-08-20T11:12:51.289Z,25.39
2018-08-20T11:15:20.211Z,25.49
2018-08-20T11:17:48.657Z,25.56
2018-08-20T11:20:17.556Z,25.66
2018-08-20T11:22:46.140Z,25.69
2018-08-20T11:25:15.726Z,25.82
2018-08-20T11:27:44.449Z,26.03
2018-08-20T11:30:14.127Z,26.18
2018-08-20T11:32:42.727Z,26.36
2018-08-20T11:35:11.720Z,26.62
2018-08-20T11:37:40.382Z,26.86
2018-08-20T11:40:10.600Z,26.96
2018-08-20T11:42:39.802Z,26.99
2018-08-20T11:45:14.872Z,27.16
2018-08-20T11:47:45.527Z,27.14
2018-08-20T11:52:57.970Z,27.15
2018-08-20T11:55:26.809Z,27.33
2018-08-20T11:57:55.703Z,27.33
2018-08-20T12:00:24.079Z,27.11
2018-08-20T12:02:52.913Z,27.01
2018-08-20T12:05:21.377Z,27.03
2018-08-20T12:07:50.235Z,27.03
2018-08-20T12:10:18.727Z,26.87
2018-08-20T12:12:47.276Z,26.77
2018-08-20T12:15:16.875Z,26.64
2018-08-20T12:17:45.559Z,26.47
2018-08-20T12:20:14.555Z,26.37
2018-08-20T12:22:43.071Z,26.30
2018-08-20T12:25:13.813Z,26.14
2018-08-20T12:27:42.264Z,26.02
2018-08-20T12:30:11.793Z,25.97
2018-08-20T12:32:41.075Z,25.89
2018-08-20T12:37:50.834Z,25.87
2018-08-20T12:40:19.811Z,25.85
2018-08-20T12:42:48.506Z,25.84
2018-08-20T12:45:31.556Z,25.80
2018-08-20T12:47:59.974Z,25.82
2018-08-20T12:50:28.473Z,25.76
2018-08-20T12:52:57.181Z,25.75
2018-08-20T12:55:25.651Z,25.75
2018-08-20T12:57:54.636Z,25.78
2018-08-20T13:00:23.037Z,25.79
2018-08-20T13:02:51.707Z,25.78
2018-08-20T13:05:20.211Z,25.76
2018-08-20T13:07:48.702Z,25.75
2018-08-20T13:10:17.139Z,25.72
2018-08-20T13:12:46.138Z,25.72
2018-08-20T13:15:16.085Z,25.67
2018-08-20T13:17:46.312Z,25.62
2018-08-20T13:20:30.492Z,25.59
2018-08-20T13:22:59.117Z,25.57
2018-08-20T13:25:27.580Z,25.54
2018-08-20T13:27:56.688Z,25.55
2018-08-20T13:30:25.411Z,25.60
2018-08-20T13:32:53.875Z,25.66
2018-08-20T13:35:22.339Z,25.67
2018-08-20T13:37:50.739Z,25.70
2018-08-20T13:40:19.525Z,25.76
2018-08-20T13:42:48.082Z,25.74
2018-08-20T13:45:16.537Z,25.69
2018-08-20T13:47:44.950Z,25.68
2018-08-20T13:50:14.649Z,25.65
2018-08-20T13:52:44.612Z,25.67
2018-08-20T13:55:13.463Z,25.67
2018-08-20T13:57:49.773Z,25.66
2018-08-20T14:00:21.198Z,25.65
2018-08-20T14:02:49.873Z,25.70
2018-08-20T14:05:18.427Z,25.76
2018-08-20T14:07:47.667Z,25.71
2018-08-20T14:10:16.156Z,25.71
2018-08-20T14:12:44.928Z,25.70
2018-08-20T14:15:14.307Z,25.77
2018-08-20T14:17:43.620Z,25.79
2018-08-20T14:20:13.947Z,25.78
2018-08-20T14:22:43.580Z,25.77
2018-08-20T14:25:17.191Z,25.77
2018-08-20T14:27:45.729Z,25.74
2018-08-20T14:30:15.701Z,25.77
2018-08-20T14:32:44.660Z,25.76
2018-08-20T14:35:13.560Z,25.78
2018-08-20T14:37:42.332Z,25.80
2018-08-20T14:40:13.522Z,25.77
2018-08-20T14:42:42.420Z,25.79
2018-08-20T14:45:24.893Z,25.79
2018-08-20T14:47:53.460Z,25.73
2018-08-20T14:50:22.217Z,25.75
2018-08-20T14:52:50.761Z,25.72
2018-08-20T14:55:19.301Z,25.65
2018-08-20T14:57:47.825Z,25.63
2018-08-20T15:00:16.324Z,25.60
2018-08-20T15:02:44.839Z,25.56
2018-08-20T15:05:13.432Z,25.54
2018-08-20T15:07:42.057Z,25.55
2018-08-20T15:10:10.883Z,25.51
2018-08-20T15:12:39.413Z,25.48
2018-08-20T15:15:13.432Z,25.46
2018-08-20T15:17:41.874Z,25.43
2018-08-20T15:20:11.061Z,25.42
2018-08-20T15:22:39.656Z,25.45
2018-08-20T15:25:13.340Z,25.50
2018-08-20T15:27:41.861Z,25.49
2018-08-20T15:30:10.285Z,25.50
2018-08-20T15:32:39.205Z,25.53
2018-08-20T15:35:07.784Z,25.55
2018-08-20T15:37:36.603Z,25.58
2018-08-20T15:40:05.479Z,25.58
2018-08-20T15:42:34.490Z,25.56
2018-08-20T15:45:03.100Z,25.55
2018-08-20T15:47:31.656Z,25.50
2018-08-20T15:50:00.310Z,25.45
2018-08-20T15:52:28.763Z,25.46
2018-08-20T15:54:57.306Z,25.44
2018-08-20T15:57:25.764Z,25.46
2018-08-20T15:59:55.214Z,25.43
2018-08-20T16:02:23.710Z,25.42
2018-08-20T16:04:52.121Z,25.43
2018-08-20T16:07:20.750Z,25.45
2018-08-20T16:09:49.256Z,25.41
2018-08-20T16:12:18.303Z,25.37
2018-08-20T16:14:46.968Z,25.36
2018-08-20T16:17:15.470Z,25.38
2018-08-20T16:19:44.100Z,25.39
2018-08-20T16:22:12.660Z,25.35
2018-08-20T16:24:50.546Z,25.36
2018-08-20T16:27:19.022Z,25.36
2018-08-20T16:29:47.615Z,25.35
2018-08-20T16:32:16.072Z,25.33
2018-08-20T16:34:44.645Z,25.30
2018-08-20T16:37:13.481Z,25.28
2018-08-20T16:39:42.261Z,25.32
2018-08-20T16:42:10.819Z,25.34
2018-08-20T16:44:44.679Z,25.32
2018-08-20T16:47:13.690Z,25.31
2018-08-20T16:49:44.169Z,25.30
2018-08-20T16:52:12.813Z,25.29
2018-08-20T16:54:42.219Z,25.30
2018-08-20T16:57:11.061Z,25.28
2018-08-20T16:59:40.019Z,25.31
2018-08-20T17:02:16.011Z,25.29
2018-08-20T17:04:45.102Z,25.33
2018-08-20T17:07:14.046Z,25.31
2018-08-20T17:09:44.601Z,25.29
2018-08-20T17:12:13.457Z,25.26
2018-08-20T17:14:42.496Z,25.26
2018-08-20T17:17:11.882Z,25.22
2018-08-20T17:19:42.409Z,25.23
2018-08-20T17:22:11.234Z,25.22
2018-08-20T17:24:40.783Z,25.21
2018-08-20T17:27:09.868Z,25.19
2018-08-20T17:29:39.253Z,25.14
2018-08-20T17:32:09.001Z,25.16
2018-08-20T17:34:44.172Z,25.15
2018-08-20T17:37:16.417Z,25.12
2018-08-20T17:40:04.780Z,25.09
2018-08-20T17:42:34.365Z,25.09
2018-08-20T17:45:03.562Z,25.05
2018-08-20T17:47:32.521Z,25.03
2018-08-20T17:50:01.874Z,24.98
2018-08-20T17:52:32.798Z,24.96
2018-08-20T17:55:03.974Z,24.98
2018-08-20T17:57:32.710Z,24.99
2018-08-20T18:00:43.642Z,24.97
2018-08-20T18:03:31.167Z,24.94
2018-08-20T18:06:01.127Z,24.93
2018-08-20T18:08:31.467Z,24.91
2018-08-20T18:11:00.363Z,24.89
2018-08-20T18:13:40.097Z,24.89
2018-08-20T18:16:10.477Z,24.88
2018-08-20T18:18:39.766Z,24.86
2018-08-20T18:21:08.313Z,24.88
2018-08-20T18:23:41.838Z,24.89
2018-08-20T18:26:10.442Z,24.90
2018-08-20T18:28:47.347Z,24.90
2018-08-20T18:31:17.991Z,24.91
2018-08-20T18:33:47.427Z,24.92
2018-08-20T18:36:21.056Z,24.90
2018-08-20T18:38:57.558Z,24.91
2018-08-20T18:41:37.646Z,24.93
2018-08-20T18:44:06.601Z,24.93
2018-08-20T18:46:35.089Z,24.93
2018-08-20T18:49:03.811Z,24.95
2018-08-20T18:51:32.299Z,24.97
2018-08-20T18:54:01.320Z,25.01
2018-08-20T18:56:29.904Z,25.04
2018-08-20T18:58:58.734Z,25.05
2018-08-20T19:01:27.690Z,25.04
2018-08-20T19:03:57.567Z,25.04
2018-08-20T19:06:25.996Z,24.98
2018-08-20T19:08:54.696Z,24.99
2018-08-20T19:11:23.930Z,24.98
2018-08-20T19:13:57.072Z,24.96
2018-08-20T19:16:29.570Z,24.94
2018-08-20T19:18:58.206Z,24.95
2018-08-20T19:21:27.554Z,24.92
2018-08-20T19:23:57.267Z,24.91
2018-08-20T19:26:26.649Z,24.84
2018-08-20T19:28:55.147Z,24.80
2018-08-20T19:31:23.842Z,24.77
2018-08-20T19:33:52.350Z,24.75
2018-08-20T19:36:20.820Z,24.73
2018-08-20T19:38:49.298Z,24.75
2018-08-20T19:41:17.826Z,24.72
2018-08-20T19:43:51.250Z,24.74
2018-08-20T19:46:28.058Z,24.72
2018-08-20T19:49:02.058Z,24.72
2018-08-20T19:51:32.039Z,24.68
2018-08-20T19:54:01.076Z,24.68
2018-08-20T19:56:29.658Z,24.65
2018-08-20T19:58:58.228Z,24.61
2018-08-20T20:01:27.605Z,24.60
2018-08-20T20:03:56.399Z,24.58
2018-08-20T20:06:24.923Z,24.55
2018-08-20T20:08:53.523Z,24.52
2018-08-20T20:11:28.144Z,24.53
2018-08-20T20:13:59.132Z,24.46
2018-08-20T20:16:31.524Z,24.42
2018-08-20T20:19:00.012Z,24.38
2018-08-20T20:21:28.635Z,24.34
2018-08-20T20:23:57.094Z,24.26
2018-08-20T20:26:25.563Z,24.22
2018-08-20T20:28:53.994Z,24.23
2018-08-20T20:31:22.536Z,24.23
2018-08-20T20:33:51.182Z,24.19
2018-08-20T20:36:23.988Z,24.23
2018-08-20T20:38:52.542Z,24.25
2018-08-20T20:41:20.996Z,24.23
2018-08-20T20:43:49.508Z,24.20
2018-08-20T20:46:18.227Z,24.19
2018-08-20T20:48:46.717Z,24.18
2018-08-20T20:51:15.214Z,24.18
2018-08-20T20:53:43.750Z,24.15
2018-08-20T20:56:12.447Z,24.12
2018-08-20T20:58:41.007Z,24.09
2018-08-20T21:01:12.755Z,24.07
2018-08-20T21:03:41.455Z,24.08
2018-08-20T21:06:09.922Z,24.05
2018-08-20T21:08:54.887Z,24.07
2018-08-20T21:11:23.743Z,24.05
2018-08-20T21:13:52.227Z,24.06
2018-08-20T21:16:23.733Z,24.08
2018-08-20T21:18:55.622Z,24.05
2018-08-20T21:21:24.689Z,24.05
2018-08-20T21:23:53.245Z,24.05
2018-08-20T21:26:21.728Z,24.06
2018-08-20T21:28:52.004Z,24.04
2018-08-20T21:31:23.187Z,23.98
2018-08-20T21:33:57.362Z,24.00
2018-08-20T21:36:25.737Z,23.95
2018-08-20T21:38:54.231Z,23.95
2018-08-20T21:41:25.025Z,23.96
2018-08-20T21:43:53.837Z,23.94
2018-08-20T21:46:22.417Z,23.94
2018-08-20T21:48:50.945Z,23.97
2018-08-20T21:51:21.406Z,23.93
2018-08-20T21:53:50.583Z,23.92
2018-08-20T21:56:18.982Z,23.87
2018-08-20T21:58:48.327Z,23.88
2018-08-20T22:01:17.681Z,23.92
2018-08-20T22:05:15.445Z,23.87
2018-08-20T22:07:43.909Z,23.89
2018-08-20T22:10:12.488Z,23.90
2018-08-20T22:12:40.915Z,23.90
2018-08-20T22:15:09.410Z,23.90
2018-08-20T22:17:39.019Z,23.89
2018-08-20T22:20:08.058Z,23.86
2018-08-20T22:22:36.465Z,23.84
2018-08-20T22:25:09.421Z,23.82
2018-08-20T22:27:43.156Z,23.82
2018-08-20T22:30:11.603Z,23.82
2018-08-20T22:32:40.268Z,23.81
2018-08-20T22:35:14.238Z,23.79
2018-08-20T22:37:42.646Z,23.82
2018-08-20T22:40:11.098Z,23.76
2018-08-20T22:43:01.693Z,23.70
2018-08-20T22:45:30.698Z,23.68
2018-08-20T22:47:59.173Z,23.71
2018-08-20T22:50:27.656Z,23.73
2018-08-20T22:52:56.177Z,23.72
2018-08-20T22:55:24.843Z,23.71
2018-08-20T22:58:06.243Z,23.72
2018-08-20T23:00:34.641Z,23.69
2018-08-20T23:03:03.161Z,23.70
2018-08-20T23:05:32.644Z,23.70
2018-08-20T23:08:19.436Z,23.71
2018-08-20T23:10:47.823Z,23.70
2018-08-20T23:13:16.322Z,23.69
2018-08-20T23:15:45.575Z,23.70
2018-08-20T23:18:14.133Z,23.66
2018-08-20T23:20:42.661Z,23.62
2018-08-20T23:23:11.129Z,23.63
2018-08-20T23:25:39.558Z,23.65
2018-08-20T23:28:08.420Z,23.66
2018-08-20T23:30:36.852Z,23.65
2018-08-20T23:33:06.078Z,23.65
2018-08-20T23:35:34.515Z,23.66
2018-08-20T23:38:02.952Z,23.68
2018-08-20T23:40:31.485Z,23.70
2018-08-20T23:42:59.983Z,23.66
2018-08-20T23:45:28.755Z,23.62
2018-08-20T23:47:57.553Z,23.56
2018-08-20T23:50:26.077Z,23.55
2018-08-20T23:52:54.529Z,23.56
2018-08-20T23:55:22.979Z,23.59
2018-08-20T23:57:51.392Z,23.55
